Time;durP1;ratioP1;P1;durP2;ratioP2;P2;SDS_P1;SDS_P2;PMS_P1;PMS_P2;Temp;Humidity;BMP_temperature;BMP_pressure;BME280_temperature;BME280_humidity;BME280_pressure;Samples;Min_cycle;Max_cycle;Signal;HPM_P1;HPM_P2
2023/04/24 00:00:46;;;;;;;141.68;45.28;;;;;;;;;;5020397;28;20075;-61
2023/04/24 00:03:13;;;;;;;;;;;;;;;;;;5018971;28;20049;-61
2023/04/24 00:05:41;;;;;;;138.43;49.35;;;;;;;;;;5022208;28;19948;-46
2023/04/24 00:08:15;;;;;;;167.25;53.55;;;;;;;;;;5020705;28;20052;-54
2023/04/24 00:10:42;;;;;;;162.38;53.22;;;;;;;;;;5021433;28;20071;-63
2023/04/24 00:13:16;;;;;;;108.05;43.80;;;;;;;;;;5019139;28;20140;-63
2023/04/24 00:15:43;;;;;;;127.95;48.15;;;;;;;;;;5019221;28;20153;-63
2023/04/24 00:18:10;;;;;;;139.25;49.80;;;;;;;;;;5018977;28;20064;-63
2023/04/24 00:20:44;;;;;;;111.40;42.80;;;;;;;;;;5020127;28;20468;-63
2023/04/24 00:23:11;;;;;;;134.07;45.22;;;;;;;;;;5020640;28;20057;-63
2023/04/24 00:25:38;;;;;;;122.65;46.08;;;;;;;;;;5018024;28;20037;-58
2023/04/24 00:28:12;;;;;;;121.40;48.05;;;;;;;;;;5018755;28;20693;-59
2023/04/24 00:30:39;;;;;;;130.23;49.40;;;;;;;;;;5021950;28;20049;-59
2023/04/24 00:33:06;;;;;;;119.00;42.95;;;;;;;;;;5018454;28;20497;-59
2023/04/24 00:35:40;;;;;;;71.10;34.35;;;;;;;;;;5015336;28;20085;-48
2023/04/24 00:38:07;;;;;;;;;;;;;;;;;;5019380;28;20524;-59
2023/04/24 00:40:34;;;;;;;92.70;38.60;;;;;;;;;;5018471;28;19929;-56
2023/04/24 00:43:10;;;;;;;86.93;37.75;;;;;;;;;;5018013;28;20053;-55
2023/04/24 00:45:37;;;;;;;113.82;46.78;;;;;;;;;;5021363;28;20072;-54
2023/04/24 00:48:11;;;;;;;109.63;45.40;;;;;;;;;;5020746;28;20103;-53
2023/04/24 00:50:38;;;;;;;;;;;;;;;;;;5016990;28;20505;-55
2023/04/24 00:53:06;;;;;;;106.13;44.85;;;;;;;;;;5020671;28;20011;-56
2023/04/24 00:55:46;;;;;;;111.15;46.40;;;;;;;;;;5019538;28;20064;-55
2023/04/24 00:58:14;;;;;;;115.32;47.25;;;;;;;;;;5019885;28;20576;-53
2023/04/24 01:00:50;;;;;;;101.00;41.38;;;;;;;;;;5018267;28;20083;-58
2023/04/24 01:03:18;;;;;;;108.70;41.30;;;;;;;;;;5019125;28;20049;-50
2023/04/24 01:05:45;;;;;;;119.47;45.58;;;;;;;;;;5017191;28;20140;-57
2023/04/24 01:08:19;;;;;;;107.53;44.70;;;;;;;;;;5017867;28;20053;-61
2023/04/24 01:10:48;;;;;;;101.82;44.08;;;;;;;;;;5017892;28;20181;-61
2023/04/24 01:13:15;;;;;;;105.28;44.22;;;;;;;;;;5020366;28;20055;-61
2023/04/24 01:15:49;;;;;;;100.78;42.00;;;;;;;;;;5019199;28;20057;-61
2023/04/24 01:18:16;;;;;;;99.82;42.67;;;;;;;;;;5020552;28;20111;-61
2023/04/24 01:20:46;;;;;;;73.95;36.40;;;;;;;;;;5014507;28;20073;-61
2023/04/24 01:23:22;;;;;;;75.88;34.97;;;;;;;;;;5021031;28;20053;-48
2023/04/24 01:25:51;;;;;;;99.38;40.38;;;;;;;;;;5020995;28;20064;-46
2023/04/24 01:28:25;;;;;;;65.30;32.03;;;;;;;;;;5020145;28;20497;-46
2023/04/24 01:30:53;;;;;;;76.10;34.58;;;;;;;;;;5018826;28;20501;-52
2023/04/24 01:33:27;;;;;;;112.90;40.88;;;;;;;;;;5023277;28;20119;-62
2023/04/24 01:35:54;;;;;;;94.05;41.53;;;;;;;;;;5016419;28;20418;-60
2023/04/24 01:38:22;;;;;;;83.80;37.40;;;;;;;;;;5016454;28;20492;-58
2023/04/24 01:40:57;;;;;;;90.80;39.30;;;;;;;;;;5017604;28;20050;-60
2023/04/24 01:43:24;;;;;;;99.05;42.67;;;;;;;;;;5017168;28;20101;-59
2023/04/24 01:45:51;;;;;;;112.20;43.50;;;;;;;;;;5020137;28;20489;-58
2023/04/24 01:48:25;;;;;;;95.72;40.33;;;;;;;;;;5015898;28;20049;-60
2023/04/24 01:50:52;;;;;;;85.68;39.10;;;;;;;;;;5018958;28;20089;-61
2023/04/24 01:53:32;;;;;;;86.05;37.83;;;;;;;;;;5017931;28;20228;-62
2023/04/24 01:56:00;;;;;;;84.63;37.92;;;;;;;;;;5019005;28;20064;-61
2023/04/24 01:58:34;;;;;;;103.15;42.85;;;;;;;;;;5035011;28;20526;-62
2023/04/24 02:01:01;;;;;;;95.63;41.53;;;;;;;;;;5035228;28;20536;-54
2023/04/24 02:03:28;;;;;;;97.63;43.75;;;;;;;;;;5037693;28;20111;-55
2023/04/24 02:06:02;;;;;;;92.90;40.75;;;;;;;;;;5037178;28;20045;-59
2023/04/24 02:08:29;;;;;;;86.32;40.90;;;;;;;;;;5038465;28;20059;-54
2023/04/24 02:10:57;;;;;;;71.50;34.53;;;;;;;;;;5037277;28;20053;-56
2023/04/24 02:13:31;;;;;;;76.22;37.47;;;;;;;;;;5034821;28;20049;-56
2023/04/24 02:16:01;;;;;;;80.00;37.53;;;;;;;;;;5040446;28;20417;-60
2023/04/24 02:18:35;;;;;;;61.22;32.40;;;;;;;;;;5038798;28;20049;-60
2023/04/24 02:21:02;;;;;;;74.55;37.58;;;;;;;;;;5036898;28;20140;-60
2023/04/24 02:23:29;;;;;;;73.70;34.47;;;;;;;;;;5022776;28;20059;-60
2023/04/24 02:26:03;;;;;;;82.80;38.00;;;;;;;;;;5036764;28;20076;-58
2023/04/24 02:28:30;;;;;;;83.07;39.40;;;;;;;;;;5039421;28;20143;-63
2023/04/24 02:30:58;;;;;;;77.72;35.95;;;;;;;;;;5034362;28;20077;-62
2023/04/24 02:33:32;;;;;;;56.40;27.45;;;;;;;;;;5041516;28;20555;-60
2023/04/24 02:35:59;;;;;;;64.40;33.67;;;;;;;;;;5038801;28;20453;-59
2023/04/24 02:38:26;;;;;;;66.72;36.20;;;;;;;;;;5038819;28;20080;-60
2023/04/24 02:41:00;;;;;;;80.13;38.50;;;;;;;;;;5038553;28;20053;-59
2023/04/24 02:43:27;;;;;;;79.55;38.95;;;;;;;;;;5039382;28;20063;-60
2023/04/24 02:46:01;;;;;;;71.18;35.15;;;;;;;;;;5038689;28;20063;-60
2023/04/24 02:48:28;;;;;;;67.50;34.05;;;;;;;;;;5040337;28;20057;-61
2023/04/24 02:50:55;;;;;;;74.45;38.20;;;;;;;;;;5041069;28;20136;-61
2023/04/24 02:53:36;;;;;;;78.03;37.25;;;;;;;;;;5020649;28;21966;-61
2023/04/24 02:56:03;;;;;;;76.35;36.85;;;;;;;;;;5019383;28;20055;-61
2023/04/24 02:58:37;;;;;;;77.55;38.05;;;;;;;;;;5019159;28;20050;-61
2023/04/24 03:01:04;;;;;;;75.70;38.70;;;;;;;;;;5018228;28;20136;-62
2023/04/24 03:03:32;;;;;;;74.82;36.90;;;;;;;;;;5018900;28;20202;-62
2023/04/24 03:06:07;;;;;;;77.20;38.08;;;;;;;;;;5019312;28;20063;-53
2023/04/24 03:08:35;;;;;;;79.95;39.50;;;;;;;;;;5016115;28;20081;-50
2023/04/24 03:11:09;;;;;;;65.35;30.58;;;;;;;;;;5017118;28;20053;-52
2023/04/24 03:13:36;;;;;;;69.30;32.90;;;;;;;;;;5014478;28;20084;-51
2023/04/24 03:16:03;;;;;;;72.80;36.13;;;;;;;;;;5017851;28;20063;-53
2023/04/24 03:18:37;;;;;;;69.50;33.55;;;;;;;;;;5019205;28;20147;-61
2023/04/24 03:21:04;;;;;;;67.80;32.97;;;;;;;;;;5016662;28;20104;-62
2023/04/24 03:23:38;;;;;;;67.63;34.03;;;;;;;;;;5014287;28;20053;-61
2023/04/24 03:26:05;;;;;;;58.67;30.20;;;;;;;;;;5014707;28;20049;-61
2023/04/24 03:28:32;;;;;;;61.55;32.95;;;;;;;;;;5017069;28;20049;-61
2023/04/24 03:31:06;;;;;;;73.50;33.55;;;;;;;;;;5015899;28;20053;-61
2023/04/24 03:33:33;;;;;;;55.28;26.33;;;;;;;;;;5018820;28;20112;-60
2023/04/24 03:36:07;;;;;;;60.92;28.70;;;;;;;;;;5015939;28;20049;-60
2023/04/24 03:38:34;;;;;;;55.35;27.92;;;;;;;;;;5018731;28;20148;-60
2023/04/24 03:41:01;;;;;;;58.13;29.95;;;;;;;;;;5017667;28;20055;-60
2023/04/24 03:43:35;;;;;;;55.95;30.20;;;;;;;;;;5017189;28;20509;-51
2023/04/24 03:46:02;;;;;;;66.43;30.05;;;;;;;;;;5017165;28;20081;-45
2023/04/24 03:48:36;;;;;;;58.40;29.73;;;;;;;;;;5017316;28;20054;-54
2023/04/24 03:51:05;;;;;;;58.85;29.67;;;;;;;;;;5015589;28;20079;-52
2023/04/24 03:53:32;;;;;;;63.97;31.73;;;;;;;;;;5018824;28;20148;-54
2023/04/24 03:56:06;;;;;;;67.75;31.40;;;;;;;;;;5017858;28;20046;-55
2023/04/24 03:58:33;;;;;;;67.88;32.60;;;;;;;;;;5018575;28;20054;-53
2023/04/24 04:01:02;;;;;;;69.30;31.80;;;;;;;;;;5015373;28;20437;-56
2023/04/24 04:03:36;;;;;;;69.10;33.40;;;;;;;;;;5001669;28;20734;-61
2023/04/24 04:06:03;;;;;;;;;;;;;;;;;;5018685;28;20068;-52
2023/04/24 04:08:38;;;;;;;65.68;32.05;;;;;;;;;;5034734;28;19996;-52
2023/04/24 04:11:05;;;;;;;84.95;34.60;;;;;;;;;;5037198;28;20056;-48
2023/04/24 04:13:32;;;;;;;66.85;34.38;;;;;;;;;;5040198;28;20188;-53
2023/04/24 04:16:07;;;;;;;65.78;33.72;;;;;;;;;;5039187;28;20060;-55
2023/04/24 04:18:34;;;;;;;59.25;31.00;;;;;;;;;;5036502;28;20053;-51
2023/04/24 04:21:08;;;;;;;67.35;31.27;;;;;;;;;;5035980;28;20053;-45
2023/04/24 04:23:35;;;;;;;60.13;31.60;;;;;;;;;;5036425;28;20071;-47
2023/04/24 04:26:03;;;;;;;65.18;33.80;;;;;;;;;;5032721;28;20062;-45
2023/04/24 04:28:38;;;;;;;57.55;31.98;;;;;;;;;;5034468;28;20589;-47
2023/04/24 04:31:07;;;;;;;60.63;32.38;;;;;;;;;;5035035;28;20092;-61
2023/04/24 04:33:41;;;;;;;55.22;30.85;;;;;;;;;;5035914;28;20536;-56
2023/04/24 04:36:08;;;;;;;52.25;29.25;;;;;;;;;;5036619;28;20506;-52
2023/04/24 04:38:36;;;;;;;43.03;28.00;;;;;;;;;;5039104;28;20057;-54
2023/04/24 04:41:10;;;;;;;40.60;25.20;;;;;;;;;;5039781;28;20048;-55
2023/04/24 04:43:39;;;;;;;39.17;24.92;;;;;;;;;;5037556;28;20215;-59
2023/04/24 04:46:13;;;;;;;41.28;25.35;;;;;;;;;;5035658;28;20057;-56
2023/04/24 04:48:40;;;;;;;44.47;26.52;;;;;;;;;;5038411;28;20417;-54
2023/04/24 04:51:07;;;;;;;46.50;27.40;;;;;;;;;;5039429;28;20052;-53
2023/04/24 04:53:54;;;;;;;44.30;26.63;;;;;;;;;;5021400;28;20050;-57
2023/04/24 04:56:21;;;;;;;41.70;26.83;;;;;;;;;;5016536;28;20328;-56
2023/04/24 04:58:55;;;;;;;44.03;26.02;;;;;;;;;;5015296;28;20057;-51
2023/04/24 05:01:22;;;;;;;47.03;26.63;;;;;;;;;;5019340;28;20088;-59
2023/04/24 05:03:50;;;;;;;38.70;24.85;;;;;;;;;;5020661;28;20136;-53
2023/04/24 05:06:25;;;;;;;37.63;24.92;;;;;;;;;;5018790;28;20110;-53
2023/04/24 05:08:56;;;;;;;37.38;23.90;;;;;;;;;;5020049;28;20104;-47
2023/04/24 05:11:30;;;;;;;43.10;24.90;;;;;;;;;;5016851;28;20045;-45
2023/04/24 05:13:57;;;;;;;35.70;21.83;;;;;;;;;;5018439;28;20167;-46
2023/04/24 05:16:24;;;;;;;39.80;25.10;;;;;;;;;;5022433;28;20141;-49
2023/04/24 05:18:58;;;;;;;36.38;22.95;;;;;;;;;;5018839;28;20053;-61
2023/04/24 05:21:32;;;;;;;35.50;23.25;;;;;;;;;;5017682;28;20354;-61
2023/04/24 05:24:06;;;;;;;36.13;22.58;;;;;;;;;;5017685;28;20052;-61
2023/04/24 05:26:40;;;;;;;35.53;21.23;;;;;;;;;;5039229;28;20081;-61
2023/04/24 05:29:07;;;;;;;34.35;21.40;;;;;;;;;;5040685;28;20057;-61
2023/04/24 05:31:41;;;;;;;33.67;22.13;;;;;;;;;;5039017;28;20049;-52
2023/04/24 05:34:09;;;;;;;31.33;20.92;;;;;;;;;;5039467;28;20401;-48
2023/04/24 05:36:36;;;;;;;35.88;21.75;;;;;;;;;;5038514;28;20130;-51
2023/04/24 05:39:10;;;;;;;39.38;22.92;;;;;;;;;;5041173;28;20448;-54
2023/04/24 05:41:44;;;;;;;34.17;21.27;;;;;;;;;;5039903;28;21808;-53
2023/04/24 05:44:11;;;;;;;34.08;22.02;;;;;;;;;;5040464;28;20054;-50
2023/04/24 05:46:38;;;;;;;31.80;21.35;;;;;;;;;;5040752;28;20055;-60
2023/04/24 05:49:12;;;;;;;34.05;22.38;;;;;;;;;;5041699;28;20505;-58
2023/04/24 05:51:39;;;;;;;31.67;20.42;;;;;;;;;;5038340;28;20128;-56
2023/04/24 05:54:26;;;;;;;33.75;20.80;;;;;;;;;;5021467;28;20092;-59
2023/04/24 05:57:04;;;;;;;32.15;22.05;;;;;;;;;;5019156;28;20484;-55
2023/04/24 05:59:38;;;;;;;30.42;19.83;;;;;;;;;;5020722;28;20087;-59
2023/04/24 06:02:12;;;;;;;32.97;20.15;;;;;;;;;;5016662;28;20057;-58
2023/04/24 06:04:39;;;;;;;30.13;19.30;;;;;;;;;;5019202;28;20115;-58
2023/04/24 06:07:13;;;;;;;34.35;20.88;;;;;;;;;;5018862;28;20092;-59
2023/04/24 06:09:40;;;;;;;30.58;21.17;;;;;;;;;;5017678;28;20147;-60
2023/04/24 06:12:08;;;;;;;;;;;;;;;;;;5020673;28;20045;-59
2023/04/24 06:14:42;;;;;;;28.83;18.55;;;;;;;;;;5022108;28;19931;-49
2023/04/24 06:17:09;;;;;;;34.80;22.10;;;;;;;;;;5020245;28;20144;-46
2023/04/24 06:19:44;;;;;;;35.00;21.27;;;;;;;;;;5019334;28;20053;-45
2023/04/24 06:22:12;;;;;;;35.00;20.67;;;;;;;;;;5021173;28;20076;-46
2023/04/24 06:24:40;;;;;;;30.90;20.30;;;;;;;;;;5019755;28;20052;-50
2023/04/24 06:27:14;;;;;;;31.00;19.60;;;;;;;;;;5020394;28;20059;-52
2023/04/24 06:29:41;;;;;;;32.55;18.83;;;;;;;;;;5019529;28;20586;-55
2023/04/24 06:32:16;;;;;;;30.85;19.08;;;;;;;;;;5016198;28;20441;-54
2023/04/24 06:34:43;;;;;;;30.20;21.15;;;;;;;;;;5037209;28;20104;-54
2023/04/24 06:37:10;;;;;;;31.63;19.60;;;;;;;;;;5040541;28;20526;-59
2023/04/24 06:39:44;;;;;;;27.73;18.77;;;;;;;;;;5039807;28;20060;-55
2023/04/24 06:42:14;;;;;;;27.05;18.63;;;;;;;;;;5025415;28;20056;-58
2023/04/24 06:44:42;;;;;;;25.67;17.23;;;;;;;;;;5035752;28;20048;-46
2023/04/24 06:47:16;;;;;;;27.90;19.33;;;;;;;;;;5040434;28;20131;-46
2023/04/24 06:49:43;;;;;;;25.45;17.80;;;;;;;;;;5036770;28;20168;-47
2023/04/24 06:52:17;;;;;;;25.00;17.40;;;;;;;;;;5039639;28;20045;-58
2023/04/24 06:54:50;;;;;;;34.42;18.40;;;;;;;;;;5020046;28;20119;-48
2023/04/24 06:57:24;;;;;;;24.83;16.65;;;;;;;;;;5015639;28;20052;-56
2023/04/24 06:59:51;;;;;;;24.55;15.70;;;;;;;;;;5015156;28;20059;-56
2023/04/24 07:02:18;;;;;;;27.98;17.40;;;;;;;;;;5018007;28;21484;-57
2023/04/24 07:04:52;;;;;;;25.38;16.83;;;;;;;;;;5038262;28;20045;-56
2023/04/24 07:07:20;;;;;;;26.00;16.95;;;;;;;;;;5037497;28;20146;-52
2023/04/24 07:09:56;;;;;;;26.73;16.60;;;;;;;;;;5037335;28;20056;-55
2023/04/24 07:12:23;;;;;;;24.48;16.25;;;;;;;;;;5038016;28;20075;-60
2023/04/24 07:14:51;;;;;;;23.83;15.05;;;;;;;;;;5038048;28;20508;-60
2023/04/24 07:17:25;;;;;;;23.38;15.40;;;;;;;;;;5034975;28;20055;-60
2023/04/24 07:19:52;;;;;;;;;;;;;;;;;;5040127;28;20183;-60
2023/04/24 07:22:26;;;;;;;21.75;14.38;;;;;;;;;;5038129;28;20030;-46
2023/04/24 07:24:53;;;;;;;26.10;15.38;;;;;;;;;;5036124;28;20172;-62
2023/04/24 07:27:20;;;;;;;24.98;15.30;;;;;;;;;;5039344;28;20572;-61
2023/04/24 07:29:54;;;;;;;22.48;14.75;;;;;;;;;;5035849;28;20077;-61
2023/04/24 07:32:21;;;;;;;21.60;14.07;;;;;;;;;;5039541;28;20065;-61
2023/04/24 07:34:55;;;;;;;22.25;15.55;;;;;;;;;;5038746;28;20185;-61
2023/04/24 07:37:23;;;;;;;21.42;13.90;;;;;;;;;;5039043;28;20064;-61
2023/04/24 07:39:50;;;;;;;27.83;14.82;;;;;;;;;;5036442;28;20071;-58
2023/04/24 07:42:30;;;;;;;22.05;14.60;;;;;;;;;;5036041;28;20053;-60
2023/04/24 07:44:59;;;;;;;24.48;14.55;;;;;;;;;;5039655;28;20489;-60
2023/04/24 07:47:33;;;;;;;22.98;15.02;;;;;;;;;;5024082;28;20053;-56
2023/04/24 07:50:00;;;;;;;;;;;;;;;;;;5039270;28;20097;-60
2023/04/24 07:52:27;;;;;;;19.00;12.88;;;;;;;;;;5036816;28;19968;-49
2023/04/24 07:55:08;;;;;;;20.55;14.50;;;;;;;;;;4998127;28;20931;-60
2023/04/24 07:57:35;;;;;;;19.40;14.20;;;;;;;;;;4997294;28;20573;-60
2023/04/24 08:00:09;;;;;;;21.20;13.32;;;;;;;;;;4981868;28;20145;-60
2023/04/24 08:02:43;;;;;;;23.63;13.88;;;;;;;;;;4997725;28;20509;-60
2023/04/24 08:05:10;;;;;;;21.67;13.18;;;;;;;;;;4997193;28;20057;-60
2023/04/24 08:07:45;;;;;;;18.70;13.57;;;;;;;;;;5002816;28;20413;-59
2023/04/24 08:10:13;;;;;;;18.35;13.02;;;;;;;;;;4995955;28;20060;-59
2023/04/24 08:12:40;;;;;;;17.02;12.15;;;;;;;;;;5003629;28;20050;-60
2023/04/24 08:15:14;;;;;;;17.05;12.73;;;;;;;;;;4999772;28;20085;-59
2023/04/24 08:17:41;;;;;;;19.88;11.35;;;;;;;;;;4983511;28;20050;-45
2023/04/24 08:20:15;;;;;;;18.42;11.88;;;;;;;;;;5002143;28;20054;-59
2023/04/24 08:22:43;;;;;;;20.17;12.50;;;;;;;;;;4996652;28;20133;-62
2023/04/24 08:25:10;;;;;;;16.45;11.07;;;;;;;;;;5002085;28;20137;-62
2023/04/24 08:27:44;;;;;;;15.95;11.73;;;;;;;;;;4999038;28;20073;-62
2023/04/24 08:30:11;;;;;;;17.40;10.98;;;;;;;;;;5000282;28;20054;-62
2023/04/24 08:32:38;;;;;;;13.52;10.73;;;;;;;;;;4998339;28;20141;-62
2023/04/24 08:35:13;;;;;;;15.77;9.65;;;;;;;;;;4999832;28;20136;-62
2023/04/24 08:37:40;;;;;;;18.00;11.02;;;;;;;;;;5005689;28;20056;-51
2023/04/24 08:40:15;;;;;;;19.35;10.77;;;;;;;;;;4995837;28;21537;-48
2023/04/24 08:42:45;;;;;;;18.83;10.88;;;;;;;;;;5000575;28;20046;-47
2023/04/24 08:45:13;;;;;;;16.27;11.05;;;;;;;;;;5001163;28;20087;-47
2023/04/24 08:47:47;;;;;;;16.67;12.15;;;;;;;;;;4997791;28;20490;-61
2023/04/24 08:50:15;;;;;;;16.20;10.88;;;;;;;;;;4997193;28;20061;-60
2023/04/24 08:52:42;;;;;;;17.55;10.95;;;;;;;;;;4999594;28;20052;-60
2023/04/24 08:55:24;;;;;;;19.13;11.65;;;;;;;;;;5018287;28;20073;-60
2023/04/24 08:57:58;;;;;;;15.90;10.73;;;;;;;;;;5017764;28;20156;-60
2023/04/24 09:00:32;;;;;;;18.83;11.30;;;;;;;;;;5018513;28;20067;-60
2023/04/24 09:03:08;;;;;;;17.55;10.65;;;;;;;;;;5017398;28;20056;-60
2023/04/24 09:05:46;;;;;;;14.73;10.73;;;;;;;;;;5017435;28;20136;-54
2023/04/24 09:08:14;;;;;;;15.70;10.48;;;;;;;;;;5020023;28;20110;-48
2023/04/24 09:10:42;;;;;;;15.45;10.20;;;;;;;;;;5019147;28;20045;-48
2023/04/24 09:13:18;;;;;;;17.08;10.75;;;;;;;;;;5018523;28;20809;-49
2023/04/24 09:15:45;;;;;;;17.05;10.88;;;;;;;;;;5020349;28;20049;-62
2023/04/24 09:18:20;;;;;;;14.75;10.73;;;;;;;;;;5021782;28;20051;-46
2023/04/24 09:21:02;;;;;;;15.15;10.57;;;;;;;;;;5019494;28;20077;-47
2023/04/24 09:23:36;;;;;;;15.32;11.18;;;;;;;;;;5020648;28;20083;-47
2023/04/24 09:26:07;;;;;;;14.23;11.13;;;;;;;;;;5019059;28;20104;-52
2023/04/24 09:28:38;;;;;;;15.70;11.30;;;;;;;;;;5019021;28;20067;-52
2023/04/24 09:31:18;;;;;;;17.73;11.52;;;;;;;;;;5020273;28;20060;-47
2023/04/24 09:33:55;;;;;;;15.10;10.85;;;;;;;;;;5019706;28;20061;-64
2023/04/24 09:36:33;;;;;;;16.67;11.63;;;;;;;;;;5016531;28;20567;-63
2023/04/24 09:39:01;;;;;;;19.98;11.48;;;;;;;;;;5002655;28;20508;-65
2023/04/24 09:41:29;;;;;;;20.35;12.52;;;;;;;;;;5015631;28;20428;-65
2023/04/24 09:44:15;;;;;;;13.63;10.95;;;;;;;;;;5019945;28;20513;-54
2023/04/24 09:46:43;;;;;;;15.27;11.68;;;;;;;;;;5022026;28;20124;-61
2023/04/24 09:49:20;;;;;;;19.75;12.23;;;;;;;;;;5017974;28;20053;-61
2023/04/24 09:52:06;;;;;;;16.08;11.10;;;;;;;;;;5017191;28;20050;-60
2023/04/24 09:54:47;;;;;;;15.93;11.07;;;;;;;;;;5018897;28;20054;-60
2023/04/24 09:57:21;;;;;;;18.48;11.52;;;;;;;;;;5019049;28;20149;-60
2023/04/24 09:59:48;;;;;;;17.52;11.38;;;;;;;;;;5020932;28;20148;-59
2023/04/24 10:02:22;;;;;;;19.20;10.77;;;;;;;;;;5020227;28;20056;-51
2023/04/24 10:04:49;;;;;;;;;;;;;;;;;;5023685;28;20058;-51
2023/04/24 10:07:17;;;;;;;18.33;11.88;;;;;;;;;;5019899;28;19967;-54
2023/04/24 10:09:50;;;;;;;19.42;12.38;;;;;;;;;;5018483;28;20509;-54
2023/04/24 10:12:18;;;;;;;16.65;10.73;;;;;;;;;;5022277;28;20609;-67
2023/04/24 10:14:46;;;;;;;21.33;13.18;;;;;;;;;;5017992;28;20538;-58
2023/04/24 10:17:21;;;;;;;20.13;11.70;;;;;;;;;;5019200;28;20576;-48
2023/04/24 10:19:48;;;;;;;17.63;11.23;;;;;;;;;;5018443;28;20093;-50
2023/04/24 10:22:23;;;;;;;18.50;12.32;;;;;;;;;;5022450;28;20053;-45
2023/04/24 10:24:50;;;;;;;17.75;11.43;;;;;;;;;;5020817;28;20140;-49
2023/04/24 10:27:18;;;;;;;18.17;12.02;;;;;;;;;;5020330;28;20045;-45
2023/04/24 10:29:53;;;;;;;18.08;12.68;;;;;;;;;;5015666;28;20054;-47
2023/04/24 10:32:20;;;;;;;18.48;10.75;;;;;;;;;;5019117;28;20172;-47
2023/04/24 10:34:56;;;;;;;20.10;9.93;;;;;;;;;;5017657;28;20061;-49
2023/04/24 10:37:24;;;;;;;22.38;13.85;;;;;;;;;;5017201;28;20054;-48
2023/04/24 10:39:54;;;;;;;21.10;12.68;;;;;;;;;;5017231;28;20058;-51
2023/04/24 10:42:28;;;;;;;20.13;12.02;;;;;;;;;;5016164;28;20046;-53
2023/04/24 10:44:57;;;;;;;20.15;13.45;;;;;;;;;;5018221;28;20145;-66
2023/04/24 10:47:39;;;;;;;20.08;13.38;;;;;;;;;;5014818;28;20077;-66
2023/04/24 10:50:13;;;;;;;22.02;12.23;;;;;;;;;;5016636;28;20063;-67
2023/04/24 10:52:48;;;;;;;17.80;11.02;;;;;;;;;;5019429;28;20053;-66
2023/04/24 10:55:42;;;;;;;19.17;12.65;;;;;;;;;;5018406;28;20063;-67
2023/04/24 10:58:23;;;;;;;18.75;10.95;;;;;;;;;;5017745;28;20087;-54
2023/04/24 11:01:00;;;;;;;19.67;11.77;;;;;;;;;;5017393;28;20099;-56
2023/04/24 11:03:34;;;;;;;16.92;9.88;;;;;;;;;;5018111;28;20084;-56
2023/04/24 11:06:04;;;;;;;17.35;9.77;;;;;;;;;;5018990;28;20102;-53
2023/04/24 11:08:44;;;;;;;16.90;10.82;;;;;;;;;;5015186;28;20107;-57
2023/04/24 11:11:16;;;;;;;18.17;11.90;;;;;;;;;;5019917;28;20112;-56
2023/04/24 11:13:55;;;;;;;19.77;11.77;;;;;;;;;;5015054;28;20056;-58
2023/04/24 11:16:36;;;;;;;20.10;12.95;;;;;;;;;;5017134;28;20062;-59
2023/04/24 11:19:16;;;;;;;19.77;11.68;;;;;;;;;;5015239;28;20053;-56
2023/04/24 11:22:03;;;;;;;13.63;8.00;;;;;;;;;;5020059;28;20054;-59
2023/04/24 11:24:39;;;;;;;17.65;10.15;;;;;;;;;;5018680;28;20517;-59
2023/04/24 11:27:13;;;;;;;14.95;10.48;;;;;;;;;;5014670;28;21866;-46
2023/04/24 11:29:47;;;;;;;18.35;12.35;;;;;;;;;;5018840;28;20084;-45
2023/04/24 11:32:38;;;;;;;16.58;10.57;;;;;;;;;;5018455;28;20106;-49
2023/04/24 11:35:16;;;;;;;20.63;11.85;;;;;;;;;;5022274;28;20057;-46
2023/04/24 11:37:51;;;;;;;15.88;9.70;;;;;;;;;;5018684;28;20044;-60
2023/04/24 11:40:25;;;;;;;16.35;9.68;;;;;;;;;;5016481;28;20054;-65
2023/04/24 11:43:00;;;;;;;14.55;9.60;;;;;;;;;;5017059;28;20492;-65
2023/04/24 11:45:31;;;;;;;14.27;8.75;;;;;;;;;;5017625;28;20059;-65
2023/04/24 11:48:04;;;;;;;12.95;8.98;;;;;;;;;;5022952;28;20049;-64
2023/04/24 11:50:31;;;;;;;14.20;7.80;;;;;;;;;;5019963;28;20060;-65
2023/04/24 11:53:12;;;;;;;16.15;9.75;;;;;;;;;;5022695;28;20496;-65
2023/04/24 11:55:46;;;;;;;11.18;6.88;;;;;;;;;;5000034;28;20064;-60
2023/04/24 11:58:22;;;;;;;12.38;9.00;;;;;;;;;;5002410;28;20572;-60
2023/04/24 12:00:56;;;;;;;9.77;7.20;;;;;;;;;;5001734;28;20297;-60
2023/04/24 12:03:30;;;;;;;13.73;7.25;;;;;;;;;;4999837;28;20089;-60
2023/04/24 12:05:57;;;;;;;;;;;;;;;;;;5004612;28;20058;-50
2023/04/24 12:08:28;;;;;;;10.85;7.55;;;;;;;;;;5007208;28;19925;-50
2023/04/24 12:11:09;;;;;;;10.15;7.85;;;;;;;;;;5004116;28;20133;-48
2023/04/24 12:13:36;;;;;;;8.90;7.05;;;;;;;;;;5000171;28;20061;-48
2023/04/24 12:16:10;;;;;;;8.50;6.07;;;;;;;;;;5001193;28;20054;-54
2023/04/24 12:18:42;;;;;;;7.75;5.70;;;;;;;;;;5002628;28;20049;-53
2023/04/24 12:21:18;;;;;;;5.90;4.82;;;;;;;;;;5002317;28;20068;-51
2023/04/24 12:23:54;;;;;;;7.65;5.50;;;;;;;;;;5002721;28;20752;-59
2023/04/24 12:26:22;;;;;;;7.63;5.30;;;;;;;;;;5003857;28;20052;-59
2023/04/24 12:28:56;;;;;;;9.25;5.65;;;;;;;;;;5002530;28;20058;-59
2023/04/24 12:31:23;;;;;;;6.85;4.97;;;;;;;;;;5000302;28;20145;-60
2023/04/24 12:33:57;;;;;;;9.88;5.68;;;;;;;;;;5002332;28;20046;-62
2023/04/24 12:36:26;;;;;;;6.85;4.57;;;;;;;;;;4998064;28;20520;-53
2023/04/24 12:38:54;;;;;;;11.75;7.53;;;;;;;;;;5002062;28;20129;-53
2023/04/24 12:41:27;;;;;;;6.70;4.60;;;;;;;;;;5003964;28;20502;-50
2023/04/24 12:43:55;;;;;;;6.53;4.47;;;;;;;;;;5002413;28;20157;-52
2023/04/24 12:46:22;;;;;;;7.63;4.78;;;;;;;;;;5000586;28;20520;-59
2023/04/24 12:48:58;;;;;;;5.93;4.60;;;;;;;;;;5001440;28;20058;-55
2023/04/24 12:51:32;;;;;;;7.25;4.75;;;;;;;;;;5002170;28;20438;-55
2023/04/24 12:54:13;;;;;;;4.90;3.80;;;;;;;;;;5005407;28;20610;-59
2023/04/24 12:56:40;;;;;;;7.50;4.05;;;;;;;;;;5019109;28;20179;-59
2023/04/24 12:59:14;;;;;;;4.80;3.90;;;;;;;;;;5020071;28;20480;-57
2023/04/24 13:01:41;;;;;;;5.97;3.70;;;;;;;;;;5017453;28;20054;-59
2023/04/24 13:04:08;;;;;;;3.92;3.50;;;;;;;;;;5019136;28;20050;-59
2023/04/24 13:06:42;;;;;;;6.07;3.95;;;;;;;;;;5024155;28;20061;-49
2023/04/24 13:09:09;;;;;;;5.72;3.70;;;;;;;;;;5023248;28;20713;-51
2023/04/24 13:11:43;;;;;;;4.40;3.58;;;;;;;;;;5020551;28;20068;-50
2023/04/24 13:14:10;;;;;;;4.30;3.28;;;;;;;;;;5019733;28;20054;-53
2023/04/24 13:16:37;;;;;;;4.97;3.50;;;;;;;;;;5018028;28;20100;-45
2023/04/24 13:19:11;;;;;;;3.63;3.08;;;;;;;;;;5019762;28;20953;-51
2023/04/24 13:21:38;;;;;;;5.03;3.50;;;;;;;;;;5021373;28;20046;-60
2023/04/24 13:24:13;;;;;;;3.28;2.88;;;;;;;;;;5018117;28;20085;-60
2023/04/24 13:26:40;;;;;;;3.67;2.95;;;;;;;;;;5021959;28;20044;-60
2023/04/24 13:29:07;;;;;;;7.57;3.15;;;;;;;;;;5019867;28;20064;-60
2023/04/24 13:31:41;;;;;;;3.10;2.80;;;;;;;;;;5019425;28;20076;-57
2023/04/24 13:34:08;;;;;;;3.92;3.17;;;;;;;;;;5019633;28;20056;-61
2023/04/24 13:36:35;;;;;;;4.68;3.05;;;;;;;;;;5024861;28;20072;-61
2023/04/24 13:39:10;;;;;;;3.55;3.00;;;;;;;;;;5019782;28;21485;-61
2023/04/24 13:41:37;;;;;;;4.90;3.20;;;;;;;;;;5022294;28;20079;-61
2023/04/24 13:44:11;;;;;;;5.28;3.00;;;;;;;;;;5021827;28;20049;-61
2023/04/24 13:46:38;;;;;;;5.10;3.33;;;;;;;;;;5020500;28;20144;-61
2023/04/24 13:49:05;;;;;;;5.07;3.33;;;;;;;;;;5018969;28;20066;-50
2023/04/24 13:51:39;;;;;;;3.95;3.15;;;;;;;;;;5019029;28;20489;-47
2023/04/24 13:54:06;;;;;;;;;;;;;;;;;;5020119;28;20061;-49
2023/04/24 13:56:41;;;;;;;4.00;3.10;;;;;;;;;;5023440;28;20419;-49
2023/04/24 13:59:14;;;;;;;4.93;3.50;;;;;;;;;;5017143;28;20053;-54
2023/04/24 14:01:41;;;;;;;3.70;3.30;;;;;;;;;;5018330;28;20081;-55
2023/04/24 14:04:15;;;;;;;3.00;2.55;;;;;;;;;;5016618;28;20053;-61
2023/04/24 14:06:43;;;;;;;4.22;3.10;;;;;;;;;;5020403;28;20072;-61
2023/04/24 14:09:10;;;;;;;4.50;2.80;;;;;;;;;;5014055;28;20132;-61
2023/04/24 14:11:44;;;;;;;4.25;3.00;;;;;;;;;;5015780;28;20133;-61
2023/04/24 14:14:11;;;;;;;3.30;2.95;;;;;;;;;;5019898;28;20152;-61
2023/04/24 14:16:38;;;;;;;2.88;2.45;;;;;;;;;;5016398;28;20053;-61
2023/04/24 14:19:12;;;;;;;5.57;2.60;;;;;;;;;;5014818;28;20061;-63
2023/04/24 14:21:39;;;;;;;3.85;3.08;;;;;;;;;;5016516;28;20056;-62
2023/04/24 14:24:13;;;;;;;4.68;2.92;;;;;;;;;;5017327;28;20050;-63
2023/04/24 14:26:40;;;;;;;4.53;3.10;;;;;;;;;;5019382;28;20049;-63
2023/04/24 14:29:07;;;;;;;3.88;2.88;;;;;;;;;;5020268;28;20058;-60
2023/04/24 14:31:41;;;;;;;4.00;2.90;;;;;;;;;;5018359;28;20314;-64
2023/04/24 14:34:09;;;;;;;4.05;2.95;;;;;;;;;;5014263;28;20076;-63
2023/04/24 14:36:36;;;;;;;6.15;2.97;;;;;;;;;;5020058;28;20055;-62
2023/04/24 14:39:10;;;;;;;2.95;2.65;;;;;;;;;;5018982;28;20145;-63
2023/04/24 14:41:39;;;;;;;4.15;3.17;;;;;;;;;;5021855;28;20045;-64
2023/04/24 14:44:12;;;;;;;5.78;3.10;;;;;;;;;;5018023;28;20053;-63
2023/04/24 14:46:39;;;;;;;7.20;3.13;;;;;;;;;;5018823;28;20509;-60
2023/04/24 14:49:09;;;;;;;4.22;2.88;;;;;;;;;;5016235;28;20057;-60